createdAt,value
2023-01-11T00:01:51.310Z,3.85
2023-01-11T00:05:56.571Z,6.22
2023-01-11T00:09:58.027Z,12.40
2023-01-11T00:13:59.497Z,4.22
2023-01-11T00:18:02.831Z,4.63
2023-01-11T00:22:04.321Z,6.60
2023-01-11T00:26:08.464Z,6.03
2023-01-11T00:30:10.515Z,6.03
2023-01-11T00:34:11.954Z,6.95
2023-01-11T00:38:33.343Z,10.85
2023-01-11T00:42:53.193Z,7.85
2023-01-11T00:47:13.633Z,7.05
2023-01-11T00:55:16.622Z,6.28
2023-01-11T00:59:18.212Z,3.92
2023-01-11T01:03:19.684Z,4.07
2023-01-11T01:07:21.138Z,2.25
2023-01-11T01:11:23.075Z,6.22
2023-01-11T01:15:24.646Z,9.73
2023-01-11T01:19:29.233Z,7.32
2023-01-11T01:23:30.780Z,3.97
2023-01-11T01:27:32.449Z,7.43
2023-01-11T01:31:34.021Z,4.68
2023-01-11T01:35:38.027Z,6.00
2023-01-11T01:39:39.501Z,3.35
2023-01-11T01:43:47.596Z,10.05
2023-01-11T01:47:55.932Z,3.83
2023-01-11T01:51:58.164Z,3.60
2023-01-11T01:56:01.735Z,4.85
2023-01-11T02:00:06.753Z,2.42
2023-01-11T02:04:13.899Z,11.77
2023-01-11T02:08:27.210Z,4.47
2023-01-11T02:12:32.599Z,6.35
2023-01-11T02:16:34.130Z,4.85
2023-01-11T02:20:35.612Z,6.55
2023-01-11T02:24:54.955Z,7.40
2023-01-11T02:29:34.113Z,2.83
2023-01-11T02:33:54.248Z,1.38
2023-01-11T02:38:03.662Z,4.57
2023-01-11T02:42:38.991Z,4.47
2023-01-11T02:46:48.678Z,2.83
2023-01-11T02:51:05.987Z,5.95
2023-01-11T02:55:10.539Z,5.68
2023-01-11T02:59:17.032Z,2.13
2023-01-11T03:03:22.262Z,2.50
2023-01-11T03:07:23.635Z,3.25
2023-01-11T03:12:14.821Z,5.22
2023-01-11T03:16:19.029Z,3.55
2023-01-11T03:20:35.674Z,6.47
2023-01-11T03:24:50.387Z,4.35
2023-01-11T03:29:20.432Z,2.45
2023-01-11T03:33:21.816Z,5.43
2023-01-11T03:37:28.488Z,3.63
2023-01-11T03:41:35.756Z,1.65
2023-01-11T03:45:57.303Z,6.28
2023-01-11T03:50:06.192Z,5.05
2023-01-11T03:54:10.621Z,3.97
2023-01-11T03:58:12.535Z,1.45
2023-01-11T04:02:29.030Z,7.03
2023-01-11T04:06:34.137Z,4.28
2023-01-11T04:10:35.625Z,7.00
2023-01-11T04:14:37.192Z,4.25
2023-01-11T04:18:38.692Z,3.58
2023-01-11T04:22:40.224Z,5.75
2023-01-11T04:26:41.709Z,3.00
2023-01-11T04:30:43.217Z,6.50
2023-01-11T04:34:44.632Z,4.18
2023-01-11T04:38:46.197Z,2.53
2023-01-11T04:42:47.660Z,1.10
2023-01-11T04:46:49.091Z,1.77
2023-01-11T04:50:50.509Z,4.25
2023-01-11T04:54:52.465Z,3.80
2023-01-11T04:58:53.917Z,11.10
2023-01-11T05:02:59.090Z,2.75
2023-01-11T05:07:01.186Z,1.67
2023-01-11T05:11:05.977Z,6.15
2023-01-11T05:15:08.290Z,4.03
2023-01-11T05:19:11.777Z,6.28
2023-01-11T05:23:13.239Z,0.70
2023-01-11T05:27:14.707Z,2.13
2023-01-11T05:31:16.843Z,1.58
2023-01-11T05:35:18.344Z,4.55
2023-01-11T05:39:19.860Z,2.45
2023-01-11T05:43:21.444Z,3.42
2023-01-11T05:47:22.877Z,1.63
2023-01-11T05:51:24.879Z,4.88
2023-01-11T05:55:26.349Z,3.47
2023-01-11T05:59:29.322Z,3.28
2023-01-11T06:03:32.180Z,2.92
2023-01-11T06:07:33.629Z,5.28
2023-01-11T06:11:35.072Z,3.80
2023-01-11T06:15:36.495Z,2.30
2023-01-11T06:19:37.937Z,3.20
2023-01-11T06:23:45.096Z,5.80
2023-01-11T06:27:46.528Z,4.07
2023-01-11T06:31:48.036Z,6.00
2023-01-11T06:35:50.089Z,3.65
2023-01-11T06:39:51.514Z,4.35
2023-01-11T06:43:52.952Z,4.78
2023-01-11T06:47:54.354Z,6.53
2023-01-11T06:51:55.798Z,2.92
2023-01-11T06:55:58.557Z,2.15
2023-01-11T07:00:00.523Z,5.38
2023-01-11T07:04:02.248Z,3.17
2023-01-11T07:08:03.734Z,6.53
2023-01-11T07:12:05.474Z,3.42
2023-01-11T07:16:07.264Z,3.08
2023-01-11T07:20:09.614Z,2.50
2023-01-11T07:24:11.087Z,3.03
2023-01-11T07:28:12.543Z,2.33
2023-01-11T07:32:14.598Z,4.07
2023-01-11T07:36:16.119Z,9.55
2023-01-11T07:40:18.809Z,5.97
2023-01-11T07:44:20.238Z,1.90
2023-01-11T07:48:26.175Z,5.13
2023-01-11T07:52:27.774Z,6.78
2023-01-11T07:56:30.408Z,1.58
2023-01-11T08:00:32.216Z,7.35
2023-01-11T08:04:33.706Z,1.27
2023-01-11T08:08:35.167Z,4.97
2023-01-11T08:13:01.177Z,1.05
2023-01-11T08:17:02.735Z,3.58
2023-01-11T08:21:04.275Z,2.85
2023-01-11T08:25:06.207Z,4.65
2023-01-11T08:29:07.828Z,1.92
2023-01-11T08:33:10.064Z,1.65
2023-01-11T08:37:11.453Z,4.00
2023-01-11T08:41:14.726Z,3.75
2023-01-11T08:45:16.455Z,3.55
2023-01-11T08:49:17.906Z,2.08
2023-01-11T08:53:20.876Z,5.28
2023-01-11T08:57:22.408Z,1.67
2023-01-11T09:01:23.906Z,1.75
2023-01-11T09:05:25.380Z,2.22
2023-01-11T09:09:26.858Z,3.05
2023-01-11T09:13:28.369Z,3.15
2023-01-11T09:17:29.825Z,2.65
2023-01-11T09:21:31.824Z,5.15
2023-01-11T09:25:33.637Z,3.20
2023-01-11T09:29:37.272Z,3.35
2023-01-11T09:33:39.209Z,1.05
2023-01-11T09:37:44.381Z,2.85
2023-01-11T09:42:00.128Z,2.05
2023-01-11T09:46:08.368Z,4.07
2023-01-11T09:50:21.962Z,1.73
2023-01-11T09:54:27.117Z,4.82
2023-01-11T09:58:54.853Z,0.93
2023-01-11T10:03:13.188Z,7.85
2023-01-11T10:07:49.607Z,2.35
2023-01-11T10:18:26.160Z,2.90
2023-01-11T10:21:18.027Z,2.00
2023-01-11T10:25:26.600Z,2.63
2023-01-11T10:29:59.373Z,1.33
2023-01-11T10:34:02.296Z,3.00
2023-01-11T10:38:27.771Z,4.88
2023-01-11T10:42:33.451Z,2.88
2023-01-11T10:46:39.943Z,2.67
2023-01-11T10:50:54.825Z,2.92
2023-01-11T10:54:58.665Z,5.55
2023-01-11T10:59:30.810Z,3.03
2023-01-11T11:03:51.809Z,3.67
2023-01-11T11:08:14.773Z,3.33
2023-01-11T11:12:38.714Z,3.17
2023-01-11T11:16:56.324Z,3.88
2023-01-11T11:21:04.325Z,1.45
2023-01-11T11:25:17.099Z,3.05
2023-01-11T11:29:29.040Z,6.00
2023-01-11T11:33:33.906Z,2.97
2023-01-11T11:37:38.557Z,3.63
2023-01-11T11:41:49.227Z,3.00
2023-01-11T11:45:58.200Z,3.92
2023-01-11T11:50:27.392Z,2.97
2023-01-11T11:54:49.667Z,3.17
2023-01-11T11:58:52.555Z,2.67
2023-01-11T12:03:15.784Z,2.63
2023-01-11T12:07:23.881Z,2.95
2023-01-11T12:11:34.947Z,2.13
2023-01-11T12:15:36.419Z,2.67
2023-01-11T12:19:45.252Z,2.80
2023-01-11T12:23:48.098Z,4.32
2023-01-11T12:28:07.354Z,2.38
2023-01-11T12:32:48.379Z,2.33
2023-01-11T12:37:16.309Z,3.00
2023-01-11T12:41:47.497Z,1.00
2023-01-11T12:46:20.157Z,1.73
2023-01-11T12:50:33.136Z,3.88
2023-01-11T12:54:51.641Z,2.47
2023-01-11T12:59:01.451Z,5.13
2023-01-11T13:03:41.099Z,2.70
2023-01-11T13:07:51.903Z,2.85
2023-01-11T13:12:02.788Z,1.83
2023-01-11T13:16:17.978Z,1.70
2023-01-11T13:20:59.227Z,3.38
2023-01-11T13:25:05.630Z,3.22
2023-01-11T13:29:16.568Z,3.00
2023-01-11T13:33:22.795Z,3.88
2023-01-11T13:37:55.808Z,2.58
2023-01-11T13:42:15.701Z,6.22
2023-01-11T13:46:23.251Z,6.35
2023-01-11T13:50:47.356Z,2.55
2023-01-11T13:54:53.196Z,2.60
2023-01-11T13:59:32.304Z,2.78
2023-01-11T14:04:04.243Z,2.40
2023-01-11T14:08:22.455Z,2.65
2023-01-11T14:12:51.114Z,2.08
2023-01-11T14:17:14.245Z,3.13
2023-01-11T14:21:28.615Z,1.85
2023-01-11T14:25:57.789Z,2.90
2023-01-11T14:30:21.058Z,2.15
2023-01-11T14:34:37.583Z,2.20
2023-01-11T14:38:59.587Z,4.22
2023-01-11T14:43:24.583Z,2.17
2023-01-11T14:48:03.811Z,3.42
2023-01-11T14:52:38.480Z,2.40
2023-01-11T14:56:44.055Z,5.82
2023-01-11T15:00:45.443Z,1.42
2023-01-11T15:04:54.704Z,1.50
2023-01-11T15:08:56.325Z,2.42
2023-01-11T15:12:58.480Z,2.25
2023-01-11T15:17:20.997Z,4.30
2023-01-11T15:21:25.939Z,2.08
2023-01-11T15:25:29.548Z,5.18
2023-01-11T15:29:30.995Z,2.53
2023-01-11T15:33:47.346Z,1.02
2023-01-11T15:37:57.194Z,2.85
2023-01-11T15:46:40.820Z,3.03
2023-01-11T15:50:57.997Z,5.72
2023-01-11T15:55:36.831Z,2.00
2023-01-11T15:59:56.484Z,2.70
2023-01-11T16:04:31.998Z,4.07
2023-01-11T16:08:44.456Z,2.40
2023-01-11T16:13:06.119Z,5.85
2023-01-11T16:17:13.123Z,2.33
2023-01-11T16:21:31.648Z,2.80
2023-01-11T16:25:38.296Z,2.65
2023-01-11T16:29:39.881Z,5.68
2023-01-11T16:33:41.389Z,4.72
2023-01-11T16:37:46.922Z,2.30
2023-01-11T16:42:03.702Z,4.63
2023-01-11T16:46:05.277Z,3.15
2023-01-11T16:50:20.776Z,4.05
2023-01-11T16:54:27.088Z,4.80
2023-01-11T16:58:32.723Z,1.38
2023-01-11T17:02:40.140Z,2.75
2023-01-11T17:06:41.705Z,2.25
2023-01-11T17:10:43.244Z,2.78
2023-01-11T17:14:59.700Z,3.72
2023-01-11T17:19:08.262Z,2.60
2023-01-11T17:23:16.210Z,4.22
2023-01-11T17:27:50.799Z,4.22
2023-01-11T17:31:53.423Z,3.30
2023-01-11T17:35:55.556Z,5.60
2023-01-11T17:39:58.721Z,3.67
2023-01-11T17:44:19.215Z,4.38
2023-01-11T17:48:21.852Z,4.53
2023-01-11T17:52:25.033Z,2.65
2023-01-11T17:56:32.340Z,3.50
2023-01-11T18:00:34.022Z,1.63
2023-01-11T18:04:35.587Z,4.90
2023-01-11T18:08:37.192Z,5.32
2023-01-11T18:12:44.982Z,4.88
2023-01-11T18:17:05.414Z,4.93
2023-01-11T18:21:25.272Z,5.97
2023-01-11T18:25:29.616Z,7.38
2023-01-11T18:29:37.099Z,5.93
2023-01-11T18:33:39.449Z,3.40
2023-01-11T18:37:40.961Z,4.75
2023-01-11T18:42:01.121Z,7.72
2023-01-11T18:46:02.639Z,2.28
2023-01-11T18:50:05.412Z,5.18
2023-01-11T18:54:09.593Z,6.43
2023-01-11T18:58:11.094Z,11.07
2023-01-11T19:02:28.220Z,6.28
2023-01-11T19:06:29.732Z,6.50
2023-01-11T19:10:31.153Z,6.43
2023-01-11T19:14:32.709Z,10.65
2023-01-11T19:18:35.420Z,7.90
2023-01-11T19:22:37.450Z,12.02
2023-01-11T19:26:39.061Z,13.32
2023-01-11T19:30:41.091Z,12.98
2023-01-11T19:34:42.765Z,11.38
2023-01-11T19:38:44.318Z,10.50
2023-01-11T19:42:47.562Z,9.00
2023-01-11T19:46:53.053Z,10.52
2023-01-11T19:51:03.776Z,8.88
2023-01-11T19:55:05.842Z,13.00
2023-01-11T19:59:07.397Z,11.52
2023-01-11T20:03:08.889Z,8.13
2023-01-11T20:07:12.091Z,9.75
2023-01-11T20:11:15.071Z,13.27
2023-01-11T20:15:17.484Z,11.35
2023-01-11T20:19:18.940Z,11.70
2023-01-11T20:23:20.506Z,5.63
2023-01-11T20:27:22.165Z,11.63
2023-01-11T20:31:28.209Z,13.35
2023-01-11T20:35:29.797Z,11.15
2023-01-11T20:39:31.287Z,6.57
2023-01-11T20:43:32.823Z,9.40
2023-01-11T20:47:34.504Z,10.30
2023-01-11T20:51:36.718Z,13.65
2023-01-11T20:55:38.178Z,3.72
2023-01-11T20:59:39.779Z,13.30
2023-01-11T21:03:41.311Z,6.97
2023-01-11T21:07:42.892Z,8.00
2023-01-11T21:11:48.612Z,6.38
2023-01-11T21:15:50.145Z,14.10
2023-01-11T21:19:51.635Z,8.10
2023-01-11T21:23:58.651Z,2.83
2023-01-11T21:28:00.085Z,6.18
2023-01-11T21:32:01.662Z,7.57
2023-01-11T21:36:10.327Z,10.02
2023-01-11T21:40:14.012Z,7.78
2023-01-11T21:44:16.398Z,10.93
2023-01-11T21:48:17.890Z,15.15
2023-01-11T21:52:19.495Z,19.52
2023-01-11T21:56:21.055Z,8.35
2023-01-11T22:00:22.570Z,12.93
2023-01-11T22:04:24.038Z,11.02
2023-01-11T22:08:25.527Z,19.35
2023-01-11T22:12:26.943Z,14.38
2023-01-11T22:16:30.714Z,10.07
2023-01-11T22:20:32.273Z,14.75
2023-01-11T22:24:33.762Z,12.50
2023-01-11T22:28:54.213Z,11.52
2023-01-11T22:32:55.714Z,13.05
2023-01-11T22:36:57.182Z,8.57
2023-01-11T22:41:00.092Z,8.07
2023-01-11T22:45:01.594Z,4.47
2023-01-11T22:49:04.804Z,13.23
2023-01-11T22:53:06.265Z,4.50
2023-01-11T22:57:07.725Z,12.48
2023-01-11T23:01:30.298Z,8.65
2023-01-11T23:05:31.868Z,17.60
2023-01-11T23:09:33.310Z,12.55
2023-01-11T23:13:54.730Z,11.15
2023-01-11T23:17:56.373Z,10.95
2023-01-11T23:21:58.024Z,8.13
2023-01-11T23:25:59.455Z,6.18
2023-01-11T23:30:00.920Z,6.78
2023-01-11T23:34:03.840Z,10.40
2023-01-11T23:38:05.584Z,8.32
2023-01-11T23:42:25.398Z,11.60
2023-01-11T23:46:46.184Z,19.95
2023-01-11T23:50:47.592Z,11.88
2023-01-11T23:54:49.083Z,10.43
2023-01-11T23:58:50.592Z,3.28
